Time;durP1;ratioP1;P1;durP2;ratioP2;P2;SDS_P1;SDS_P2;PMS_P1;PMS_P2;Temp;Humidity;BMP_temperature;BMP_pressure;BME280_temperature;BME280_humidity;BME280_pressure;Samples;Min_cycle;Max_cycle;Signal;HPM_P1;HPM_P2
2022/03/11 00:05:02;;;;;;;3.42;2.70;;;;;;;-1.30;40.10;101171.72;4194431;34;20862;-94
2022/03/11 00:07:52;;;;;;;2.92;2.72;;;;;;;-1.59;40.14;101166.59;4190004;34;32767;-95
2022/03/11 00:11:01;;;;;;;3.00;2.70;;;;;;;-1.19;39.37;101171.44;4195633;34;31930;-95
2022/03/11 00:14:32;;;;;;;5.10;2.93;;;;;;;-1.86;40.43;101166.69;4203898;34;33383;-92
2022/03/11 00:18:23;;;;;;;3.40;3.03;;;;;;;-1.72;40.49;101165.84;4203768;34;33567;-93
2022/03/11 00:21:32;;;;;;;;;;;;;;;-1.84;40.72;101162.53;4206900;34;33811;-92
2022/03/11 00:25:02;;;;;;;5.00;3.40;;;;;;;-1.77;40.49;101167.22;4209677;34;32546;-94
2022/03/11 00:28:32;;;;;;;4.57;3.33;;;;;;;-2.14;41.00;101164.12;4227161;33;32798;-93
2022/03/11 00:31:41;;;;;;;3.35;2.90;;;;;;;-2.08;40.77;101156.84;4278670;33;33332;-93
2022/03/11 00:35:32;;;;;;;3.40;3.10;;;;;;;-2.11;40.81;101155.81;4271527;33;33135;-95
2022/03/11 00:38:21;;;;;;;4.28;3.45;;;;;;;-1.51;40.10;101156.06;4271877;33;32576;-93
2022/03/11 00:41:16;;;;;;;4.20;3.30;;;;;;;-2.01;40.98;101161.53;4259878;33;32949;-93
2022/03/11 00:44:44;;;;;;;4.30;3.40;;;;;;;-2.05;40.95;101158.72;4258661;33;33096;-93
2022/03/11 00:47:34;;;;;;;3.05;2.83;;;;;;;-1.90;40.56;101153.69;4253106;33;32378;-95
2022/03/11 00:50:44;;;;;;;8.55;4.05;;;;;;;-2.11;40.86;101140.53;4254392;33;32417;-94
2022/03/11 00:54:13;;;;;;;3.87;2.72;;;;;;;-2.28;41.33;101142.06;4273165;33;32476;-92
2022/03/11 00:57:23;;;;;;;3.75;3.42;;;;;;;-2.01;41.01;101146.28;4273037;33;32607;-93
2022/03/11 01:00:54;;;;;;;4.82;3.30;;;;;;;-2.45;41.40;101152.03;4278565;33;33001;-94
2022/03/11 01:04:07;;;;;;;3.85;3.08;;;;;;;-1.92;40.73;101148.50;4244175;33;32954;-93
2022/03/11 01:08:21;;;;;;;3.20;2.92;;;;;;;-2.26;40.80;101143.03;4246700;33;33929;-95
2022/03/11 01:11:11;;;;;;;3.08;2.87;;;;;;;-2.06;40.64;101149.31;4253012;33;33390;-94
2022/03/11 01:14:54;;;;;;;3.30;3.00;;;;;;;-2.44;41.33;101145.28;4247805;33;33206;-93
2022/03/11 01:18:00;;;;;;;3.33;3.03;;;;;;;-1.86;40.85;101142.91;4251314;33;34834;-94
2022/03/11 01:21:33;;;;;;;3.35;3.05;;;;;;;-2.23;40.81;101141.53;4256276;33;32948;-94
2022/03/11 01:24:25;;;;;;;3.83;3.30;;;;;;;-1.74;39.94;101146.16;4260162;33;32793;-93
2022/03/11 01:28:04;;;;;;;4.68;3.40;;;;;;;-1.79;40.17;101147.56;4258780;33;35585;-95
2022/03/11 01:31:02;;;;;;;4.15;3.37;;;;;;;-2.22;40.75;101143.31;4262210;33;33554;-93
2022/03/11 01:34:33;;;;;;;3.33;3.03;;;;;;;-2.27;40.90;101161.59;4261311;33;32857;-95
2022/03/11 01:38:05;;;;;;;4.50;2.95;;;;;;;-2.26;40.86;101137.94;4260483;33;32752;-93
2022/03/11 01:41:37;;;;;;;3.05;2.72;;;;;;;-2.14;41.35;101133.59;4217202;33;33319;-93
2022/03/11 01:44:28;;;;;;;3.28;2.97;;;;;;;-2.45;41.18;101136.81;4232049;33;32147;-94
2022/03/11 01:47:18;;;;;;;3.85;3.35;;;;;;;-2.22;41.44;101140.78;4233079;33;34040;-92
2022/03/11 01:50:47;;;;;;;4.43;3.33;;;;;;;-2.44;41.10;101124.97;4232855;33;32338;-92
2022/03/11 01:53:37;;;;;;;3.20;2.90;;;;;;;-1.96;40.85;101124.56;4213208;33;32517;-92
2022/03/11 01:56:28;;;;;;;4.27;3.50;;;;;;;-2.02;41.12;101138.56;4230080;33;32575;-92
2022/03/11 01:59:48;;;;;;;3.80;3.40;;;;;;;-2.50;41.47;101139.84;4245818;33;33395;-92
2022/03/11 02:02:59;;;;;;;3.17;2.85;;;;;;;-2.45;41.49;101135.94;4251059;33;32690;-91
2022/03/11 02:05:49;;;;;;;4.35;3.25;;;;;;;-1.92;41.60;101148.50;4254031;33;33593;-91
2022/03/11 02:09:18;;;;;;;2.73;2.53;;;;;;;-1.86;40.66;101142.91;4256055;33;31811;-91
2022/03/11 02:12:47;;;;;;;3.90;3.20;;;;;;;-1.78;40.79;101151.87;4254438;33;32947;-91
2022/03/11 02:15:39;;;;;;;4.43;3.75;;;;;;;-1.75;40.86;101134.25;4255839;33;32272;-92
2022/03/11 02:18:29;;;;;;;6.20;3.05;;;;;;;-1.17;39.18;101140.19;4254387;33;34495;-93
2022/03/11 02:20:58;;;;;;;3.22;2.92;;;;;;;-1.54;40.53;101139.75;4255337;33;32568;-91
2022/03/11 02:23:31;;;;;;;4.50;3.28;;;;;;;-0.96;39.44;101145.63;4254006;33;33490;-92
2022/03/11 02:26:03;;;;;;;4.28;3.45;;;;;;;-0.66;38.81;101151.53;4253514;33;33664;-92
2022/03/11 02:28:36;;;;;;;4.35;3.00;;;;;;;-0.15;37.07;101155.97;4257934;33;33591;-91
2022/03/11 02:31:05;;;;;;;6.18;3.60;;;;;;;0.14;36.30;101149.88;4253132;33;33099;-92
2022/03/11 02:33:34;;;;;;;3.53;2.80;;;;;;;0.08;36.42;101142.78;4253197;33;33428;-92
2022/03/11 02:36:02;;;;;;;4.45;3.35;;;;;;;-0.23;36.84;101147.91;4240755;33;33593;-90
2022/03/11 02:38:32;;;;;;;3.50;2.70;;;;;;;0.19;36.38;101143.31;4253176;33;34726;-90
2022/03/11 02:41:02;;;;;;;2.60;2.40;;;;;;;0.11;36.40;101144.59;4259023;33;33489;-93
2022/03/11 02:43:31;;;;;;;3.90;2.63;;;;;;;-0.05;36.85;101154.03;4252695;33;35163;-91
2022/03/11 02:46:00;;;;;;;4.43;2.80;;;;;;;-0.22;38.04;101152.22;4253809;33;33510;-90
2022/03/11 02:48:30;;;;;;;5.10;2.97;;;;;;;-0.11;38.26;101151.13;4253990;33;33457;-92
2022/03/11 02:50:59;;;;;;;3.97;2.87;;;;;;;-0.07;37.25;101127.53;4251644;33;33075;-91
2022/03/11 02:53:28;;;;;;;4.82;3.20;;;;;;;0.24;36.28;101141.87;4253400;33;34328;-91
2022/03/11 02:55:58;;;;;;;2.87;2.45;;;;;;;-0.06;36.94;101142.03;4256885;33;34034;-90
2022/03/11 02:58:31;;;;;;;3.87;2.78;;;;;;;-0.05;36.68;101151.47;4253359;33;34442;-91
2022/03/11 03:01:01;;;;;;;5.35;2.90;;;;;;;0.02;37.36;101139.88;4253014;33;34521;-91
2022/03/11 03:03:30;;;;;;;3.87;2.72;;;;;;;-0.03;36.96;101141.31;4253952;33;33937;-90
2022/03/11 03:05:59;;;;;;;4.37;3.25;;;;;;;-0.08;37.12;101146.19;4255572;33;33713;-91
2022/03/11 03:08:28;;;;;;;3.78;2.85;;;;;;;-0.22;37.25;101149.66;4257305;33;32300;-91
2022/03/11 03:10:57;;;;;;;4.32;2.85;;;;;;;-0.17;37.58;101155.91;4252492;33;33417;-89
2022/03/11 03:13:26;;;;;;;4.35;3.95;;;;;;;-0.24;37.44;101149.59;4253875;33;33507;-90
2022/03/11 03:15:56;;;;;;;2.87;2.60;;;;;;;-0.14;37.51;101156.06;4253091;33;34755;-89
2022/03/11 03:18:25;;;;;;;3.28;2.83;;;;;;;-0.35;37.90;101147.25;4240585;33;33578;-90
2022/03/11 03:20:54;;;;;;;3.95;3.12;;;;;;;-0.19;37.27;101142.19;4257610;33;33389;-89
2022/03/11 03:23:24;;;;;;;4.20;3.12;;;;;;;-0.91;39.20;101149.31;4253336;33;33950;-90
2022/03/11 03:25:54;;;;;;;5.55;3.10;;;;;;;-0.50;38.88;101149.88;4254063;33;33047;-90
2022/03/11 03:28:23;;;;;;;2.78;2.53;;;;;;;-0.37;38.03;101146.31;4253071;33;33966;-91
2022/03/11 03:30:52;;;;;;;3.55;3.17;;;;;;;-0.15;37.12;101150.88;4252482;33;33164;-89
2022/03/11 03:33:22;;;;;;;3.85;2.72;;;;;;;-0.50;39.09;101140.53;4252558;33;32241;-89
2022/03/11 03:35:50;;;;;;;3.97;2.80;;;;;;;-0.29;37.23;101138.28;4250766;33;33896;-89
2022/03/11 03:38:21;;;;;;;3.80;2.97;;;;;;;-0.84;38.60;101129.28;4247142;33;33576;-89
2022/03/11 03:40:49;;;;;;;2.87;2.67;;;;;;;-0.42;37.51;101135.84;4254395;33;32866;-88
2022/03/11 03:43:19;;;;;;;7.15;3.53;;;;;;;-0.41;37.42;101142.72;4256658;33;32613;-90
2022/03/11 03:45:47;;;;;;;4.25;3.35;;;;;;;-0.29;37.91;101142.47;4241492;33;33367;-90
2022/03/11 03:48:16;;;;;;;4.72;3.33;;;;;;;-0.41;37.43;101144.38;4260050;33;33851;-88
2022/03/11 03:50:46;;;;;;;3.53;2.87;;;;;;;-0.27;37.22;101138.34;4254341;33;33748;-88
2022/03/11 03:53:15;;;;;;;4.03;3.07;;;;;;;-0.57;38.13;101143.53;4252202;33;33545;-88
2022/03/11 03:55:44;;;;;;;5.10;3.28;;;;;;;-0.69;39.64;101133.53;4254114;33;34006;-88
2022/03/11 03:58:12;;;;;;;2.67;2.40;;;;;;;-0.94;39.13;101145.72;4251996;33;34161;-89
2022/03/11 04:00:41;;;;;;;4.60;3.05;;;;;;;-0.96;39.18;101144.75;4258961;33;32836;-88
2022/03/11 04:03:10;;;;;;;4.72;3.30;;;;;;;-0.72;39.17;101150.34;4254723;33;34424;-88
2022/03/11 04:05:39;;;;;;;3.53;2.92;;;;;;;-0.58;38.10;101157.09;4254219;33;34763;-88
2022/03/11 04:08:09;;;;;;;4.35;2.97;;;;;;;-1.07;40.26;101154.31;4253950;33;33862;-88
2022/03/11 04:10:39;;;;;;;4.03;3.15;;;;;;;-1.35;40.48;101157.84;4245928;33;33857;-89
2022/03/11 04:13:07;;;;;;;5.40;3.25;;;;;;;-1.51;40.93;101150.97;4256359;33;33675;-89
2022/03/11 04:15:36;;;;;;;3.65;3.30;;;;;;;-0.78;40.11;101157.62;4259645;33;34411;-87
2022/03/11 04:18:06;;;;;;;3.95;2.67;;;;;;;-0.54;38.23;101156.44;4254359;33;33396;-89
2022/03/11 04:20:34;;;;;;;4.70;3.65;;;;;;;-0.61;38.71;101164.53;4254368;33;33829;-90
2022/03/11 04:23:03;;;;;;;4.00;2.85;;;;;;;-0.52;38.57;101165.06;4250790;33;34082;-88
2022/03/11 04:25:34;;;;;;;4.20;3.15;;;;;;;-0.57;39.00;101168.16;4269782;33;34772;-89
2022/03/11 04:28:02;;;;;;;3.28;2.95;;;;;;;-0.44;38.46;101170.56;4257868;33;33781;-89
2022/03/11 04:30:31;;;;;;;6.82;3.15;;;;;;;-0.57;38.93;101169.03;4257118;33;32577;-86
2022/03/11 04:33:00;;;;;;;4.65;3.10;;;;;;;-0.50;38.29;101168.56;4255180;33;33626;-88
2022/03/11 04:35:28;;;;;;;7.37;3.67;;;;;;;-0.63;38.71;101168.69;4254675;33;34630;-88
2022/03/11 04:37:58;;;;;;;3.65;2.90;;;;;;;-0.73;38.72;101168.97;4258829;33;33480;-88
2022/03/11 04:40:29;;;;;;;3.15;2.85;;;;;;;-0.46;38.46;101167.06;4254180;33;33015;-87
2022/03/11 04:43:00;;;;;;;3.55;3.10;;;;;;;-0.76;38.70;101174.78;4254125;33;33412;-89
2022/03/11 04:45:28;;;;;;;3.10;2.80;;;;;;;-0.76;38.91;101168.81;4254027;33;34068;-87
2022/03/11 04:47:57;;;;;;;3.30;3.00;;;;;;;-0.88;39.06;101177.50;4254588;33;33414;-87
2022/03/11 04:50:26;;;;;;;2.92;2.67;;;;;;;-0.94;39.18;101177.16;4248690;33;33447;-87
2022/03/11 04:52:55;;;;;;;5.55;3.35;;;;;;;-0.79;38.91;101181.38;4254230;33;34488;-87
2022/03/11 04:55:26;;;;;;;4.05;3.20;;;;;;;-0.93;39.60;101185.69;4253557;33;33980;-87
2022/03/11 04:57:54;;;;;;;4.32;3.83;;;;;;;-0.76;39.30;101184.09;4249941;33;33441;-88
2022/03/11 05:00:25;;;;;;;3.33;3.03;;;;;;;-1.00;39.75;101178.47;4252507;33;33780;-88
2022/03/11 05:02:54;;;;;;;3.45;3.08;;;;;;;-0.97;39.68;101182.06;4252972;33;34476;-87
2022/03/11 05:05:23;;;;;;;3.47;3.10;;;;;;;-1.18;40.18;101179.19;4254066;33;34704;-86
2022/03/11 05:07:52;;;;;;;5.12;3.20;;;;;;;-1.13;40.28;101184.56;4248079;33;32473;-87
2022/03/11 05:10:21;;;;;;;3.87;3.30;;;;;;;-1.33;40.37;101185.91;4253665;33;33630;-88
2022/03/11 05:12:50;;;;;;;5.18;3.40;;;;;;;-1.21;40.43;101186.63;4258966;33;34534;-88
2022/03/11 05:15:21;;;;;;;3.80;3.00;;;;;;;-1.30;40.44;101189.53;4253229;33;34709;-87
2022/03/11 05:17:51;;;;;;;4.55;3.15;;;;;;;-1.46;40.84;101191.09;4253433;33;33579;-87
2022/03/11 05:20:20;;;;;;;4.05;3.40;;;;;;;-1.49;41.17;101191.78;4253766;33;33421;-86
2022/03/11 05:22:50;;;;;;;4.82;3.08;;;;;;;-1.12;40.17;101191.38;4253089;33;33689;-88
2022/03/11 05:25:19;;;;;;;3.45;2.92;;;;;;;-1.23;40.76;101193.31;4255499;33;33921;-87
2022/03/11 05:27:48;;;;;;;5.55;3.10;;;;;;;-1.47;40.94;101191.84;4253995;33;36086;-86
2022/03/11 05:30:16;;;;;;;3.42;3.12;;;;;;;-1.70;42.67;101205.75;4253347;33;33464;-86
2022/03/11 05:32:46;;;;;;;2.85;2.60;;;;;;;-1.61;42.64;101193.59;4254397;33;34881;-87
2022/03/11 05:35:17;;;;;;;3.05;2.78;;;;;;;-1.63;42.45;101192.63;4253505;33;34091;-86
2022/03/11 05:37:47;;;;;;;4.28;3.30;;;;;;;-1.24;41.60;101204.28;4254132;33;33919;-87
2022/03/11 05:40:16;;;;;;;3.33;3.03;;;;;;;-1.37;41.38;101202.69;4253438;33;33295;-88
2022/03/11 05:42:45;;;;;;;4.53;3.42;;;;;;;-1.28;41.84;101199.81;4254185;33;33912;-87
2022/03/11 05:45:14;;;;;;;3.20;2.90;;;;;;;-0.97;40.70;101199.91;4253567;33;33904;-86
2022/03/11 05:47:43;;;;;;;4.43;3.20;;;;;;;-0.82;40.47;101209.22;4254361;33;33970;-87
2022/03/11 05:50:12;;;;;;;4.28;3.87;;;;;;;-0.78;40.34;101213.69;4251890;33;32923;-89
2022/03/11 05:52:43;;;;;;;3.65;2.70;;;;;;;-0.68;40.53;101214.31;4257418;33;33668;-86
2022/03/11 05:55:12;;;;;;;6.18;3.90;;;;;;;-0.54;40.07;101220.19;4251676;33;34427;-86
2022/03/11 05:57:41;;;;;;;4.93;3.65;;;;;;;-0.63;40.22;101216.22;4253365;33;34831;-86
2022/03/11 06:00:10;;;;;;;5.07;2.90;;;;;;;-1.15;41.93;101219.22;4247886;33;33547;-87
2022/03/11 06:02:40;;;;;;;5.62;3.40;;;;;;;-1.30;41.93;101219.22;4249690;33;33791;-88
2022/03/11 06:05:10;;;;;;;3.85;3.12;;;;;;;-1.63;42.95;101226.56;4255408;33;33447;-88
2022/03/11 06:07:40;;;;;;;4.87;3.62;;;;;;;-1.19;42.45;101225.78;4253166;33;33639;-87
2022/03/11 06:10:11;;;;;;;8.88;3.75;;;;;;;-1.40;41.91;101225.44;4251353;33;33527;-86
2022/03/11 06:12:42;;;;;;;5.35;3.62;;;;;;;-1.68;42.09;101242.34;4253325;33;33348;-87
2022/03/11 06:15:12;;;;;;;;;;;;;;;-1.49;42.06;101241.81;4253262;33;34466;-88
2022/03/11 06:17:40;;;;;;;3.95;3.55;;;;;;;-1.40;42.53;101245.78;4252019;33;33658;-87
2022/03/11 06:20:13;;;;;;;6.67;3.73;;;;;;;-1.58;42.03;101239.59;4257835;33;33172;-86
2022/03/11 06:22:50;;;;;;;3.47;3.15;;;;;;;-1.30;42.34;101237.03;4236455;33;31948;-88
2022/03/11 06:25:20;;;;;;;5.95;3.97;;;;;;;-0.75;41.51;101241.91;4248206;33;33307;-87
2022/03/11 06:27:49;;;;;;;3.65;3.22;;;;;;;-1.20;41.65;101239.31;4252179;33;34705;-87
2022/03/11 06:30:18;;;;;;;4.57;3.37;;;;;;;-1.50;41.93;101238.38;4252310;33;33408;-87
2022/03/11 06:32:49;;;;;;;;;;;;;;;-0.86;40.82;101242.16;4256601;33;33939;-86
2022/03/11 06:35:19;;;;;;;4.20;3.28;;;;;;;-0.53;40.00;101244.00;4249615;33;33991;-87
2022/03/11 06:37:50;;;;;;;4.70;3.70;;;;;;;-0.80;41.34;101243.31;4251481;33;32189;-88
2022/03/11 06:40:21;;;;;;;3.22;2.95;;;;;;;-0.63;40.14;101245.12;4252061;33;33303;-86
2022/03/11 06:42:50;;;;;;;4.85;3.45;;;;;;;-0.57;39.35;101252.28;4251599;33;33613;-87
2022/03/11 06:45:19;;;;;;;4.45;3.10;;;;;;;-1.30;39.60;101248.09;4252634;33;33584;-88
2022/03/11 06:47:49;;;;;;;3.08;2.78;;;;;;;-1.41;40.32;101243.13;4256007;33;34168;-87
2022/03/11 06:50:19;;;;;;;6.05;3.10;;;;;;;-1.46;39.79;101244.53;4249245;33;33032;-87
2022/03/11 06:52:47;;;;;;;3.83;3.42;;;;;;;-1.22;39.20;101246.00;4251882;33;33753;-88
2022/03/11 06:55:17;;;;;;;6.60;3.03;;;;;;;-1.05;38.80;101243.56;4252483;33;33811;-88
2022/03/11 06:57:47;;;;;;;3.35;2.80;;;;;;;-1.05;39.45;101241.88;4253601;33;35282;-87
2022/03/11 07:00:16;;;;;;;3.08;2.60;;;;;;;-1.23;38.82;101250.97;4257446;33;32494;-88
2022/03/11 07:02:48;;;;;;;3.45;3.03;;;;;;;-1.44;39.39;101248.94;4237953;33;34886;-89
2022/03/11 07:05:18;;;;;;;3.58;3.00;;;;;;;-1.96;39.33;101245.72;4252115;33;34431;-89
2022/03/11 07:07:46;;;;;;;4.78;3.85;;;;;;;-1.48;38.98;101252.06;4252257;33;34618;-88
2022/03/11 07:10:18;;;;;;;6.87;4.37;;;;;;;-1.67;38.93;101247.53;4250394;33;33387;-88
2022/03/11 07:12:48;;;;;;;3.10;2.83;;;;;;;-1.62;38.98;101260.53;4255373;33;33497;-89
2022/03/11 07:15:17;;;;;;;3.10;2.80;;;;;;;-1.03;38.10;101255.59;4262671;33;33419;-89
2022/03/11 07:17:48;;;;;;;2.87;2.67;;;;;;;-1.01;38.29;101261.66;4258115;33;33386;-90
2022/03/11 07:20:16;;;;;;;4.75;2.95;;;;;;;-1.61;38.40;101244.50;4260598;33;34075;-88
2022/03/11 07:22:47;;;;;;;3.55;2.75;;;;;;;-1.05;38.41;101254.63;4261136;33;35216;-89
2022/03/11 07:25:19;;;;;;;3.50;2.97;;;;;;;-1.15;37.40;101247.25;4263578;33;34327;-88
2022/03/11 07:27:49;;;;;;;3.87;2.80;;;;;;;-1.30;37.45;101258.28;4264512;33;33811;-89
2022/03/11 07:30:18;;;;;;;5.12;3.33;;;;;;;-0.60;36.86;101252.97;4251855;33;31583;-89
2022/03/11 07:32:47;;;;;;;3.50;2.87;;;;;;;-0.65;36.51;101267.13;4255893;33;34161;-88
2022/03/11 07:35:16;;;;;;;4.60;2.80;;;;;;;-0.58;36.67;101261.59;4257494;33;33199;-90
2022/03/11 07:37:44;;;;;;;4.78;3.37;;;;;;;-1.17;36.95;101269.19;4257411;33;33193;-90
2022/03/11 07:40:14;;;;;;;3.55;2.83;;;;;;;-1.30;37.62;101267.59;4261298;33;32972;-88
2022/03/11 07:42:44;;;;;;;3.22;2.80;;;;;;;-0.55;36.64;101271.97;4257484;33;33080;-89
2022/03/11 07:45:14;;;;;;;5.80;3.05;;;;;;;-0.60;36.12;101267.37;4256340;33;33631;-90
2022/03/11 07:47:44;;;;;;;2.55;2.35;;;;;;;-0.65;36.37;101268.00;4258426;33;34240;-89
2022/03/11 07:50:13;;;;;;;3.55;3.20;;;;;;;0.08;35.47;101270.34;4258486;33;34044;-90
2022/03/11 07:52:42;;;;;;;2.87;2.58;;;;;;;-0.13;36.09;101264.94;4265553;33;33127;-93
2022/03/11 07:55:12;;;;;;;4.55;3.08;;;;;;;0.19;35.03;101263.25;4263146;33;34466;-91
2022/03/11 07:57:40;;;;;;;5.78;2.92;;;;;;;0.28;34.43;101262.91;4254408;33;33589;-90
2022/03/11 08:00:10;;;;;;;3.30;3.00;;;;;;;-0.74;36.16;101267.47;4240855;33;32206;-89
2022/03/11 08:02:41;;;;;;;5.28;3.05;;;;;;;-0.67;36.59;101268.72;4250913;33;33282;-91
2022/03/11 08:05:14;;;;;;;3.47;3.10;;;;;;;0.07;35.18;101270.25;4253762;33;33571;-92
2022/03/11 08:07:48;;;;;;;3.58;2.70;;;;;;;0.42;34.86;101273.03;4254102;33;33111;-92
2022/03/11 08:10:17;;;;;;;6.62;3.12;;;;;;;0.33;35.17;101270.00;4250003;33;32334;-89
2022/03/11 08:12:46;;;;;;;4.90;2.55;;;;;;;0.39;34.75;101280.53;4249140;33;36687;-90
2022/03/11 08:15:14;;;;;;;3.85;3.33;;;;;;;0.28;35.32;101268.00;4243456;33;33841;-92
2022/03/11 08:17:45;;;;;;;2.85;2.50;;;;;;;0.27;34.78;101261.16;4252236;33;34584;-91
2022/03/11 08:20:15;;;;;;;2.97;2.70;;;;;;;-0.05;35.26;101260.25;4258621;33;35352;-88
2022/03/11 08:22:45;;;;;;;3.37;3.00;;;;;;;-0.07;35.75;101262.75;4257217;33;33306;-91
2022/03/11 08:25:14;;;;;;;3.22;2.83;;;;;;;-0.87;35.96;101257.34;4252501;33;33851;-90
2022/03/11 08:27:44;;;;;;;3.25;2.65;;;;;;;-0.37;35.95;101258.50;4254063;33;32395;-92
2022/03/11 08:30:13;;;;;;;3.12;2.80;;;;;;;0.35;34.69;101265.84;4253477;33;32447;-90
2022/03/11 08:32:42;;;;;;;5.30;3.10;;;;;;;0.65;33.77;101263.16;4254689;33;33671;-90
2022/03/11 08:35:19;;;;;;;5.93;2.95;;;;;;;0.59;33.58;101263.72;4260393;33;35139;-91
2022/03/11 08:37:48;;;;;;;3.97;2.97;;;;;;;0.38;33.71;101255.78;4250591;33;33842;-90
2022/03/11 08:40:22;;;;;;;4.07;2.87;;;;;;;0.07;33.88;101254.94;4253354;33;33074;-91
2022/03/11 08:42:55;;;;;;;4.30;2.83;;;;;;;0.57;32.65;101255.09;4253707;33;35083;-89
2022/03/11 08:45:25;;;;;;;2.60;2.37;;;;;;;0.91;32.38;101248.28;4254146;33;33614;-90
2022/03/11 08:47:54;;;;;;;3.35;2.53;;;;;;;1.20;32.19;101242.94;4254924;33;34431;-90
2022/03/11 08:50:24;;;;;;;3.00;2.55;;;;;;;1.27;32.60;101236.47;4258695;33;32862;-92
2022/03/11 08:52:56;;;;;;;3.33;2.62;;;;;;;1.24;32.66;101242.31;4253433;33;33676;-92
2022/03/11 08:55:24;;;;;;;2.70;2.50;;;;;;;1.24;31.97;101234.66;4254090;33;32871;-91
2022/03/11 08:57:53;;;;;;;3.00;2.50;;;;;;;1.06;31.69;101233.72;4253977;33;33984;-91
2022/03/11 09:00:23;;;;;;;4.45;2.75;;;;;;;0.60;32.44;101229.72;4254869;33;33069;-91
2022/03/11 09:02:52;;;;;;;5.05;2.83;;;;;;;0.52;32.48;101232.69;4259553;33;33817;-92
2022/03/11 09:05:21;;;;;;;4.70;2.75;;;;;;;0.12;32.87;101230.56;4254629;33;33431;-91
2022/03/11 09:07:51;;;;;;;3.35;2.78;;;;;;;0.06;32.90;101238.78;4255162;33;33789;-90
2022/03/11 09:10:20;;;;;;;3.00;2.40;;;;;;;0.12;32.67;101230.56;4254112;33;33715;-92
2022/03/11 09:12:49;;;;;;;2.65;2.45;;;;;;;0.91;31.98;101238.06;4253298;33;33840;-91
2022/03/11 09:15:18;;;;;;;8.02;2.75;;;;;;;1.20;31.60;101222.50;4257307;33;33571;-93
2022/03/11 09:17:48;;;;;;;3.25;2.50;;;;;;;1.01;31.55;101219.84;4254785;33;33802;-93
2022/03/11 09:20:17;;;;;;;2.78;2.40;;;;;;;1.40;30.78;101217.47;4254498;33;33288;-92
2022/03/11 09:23:02;;;;;;;2.72;2.30;;;;;;;2.05;30.63;101218.84;4253439;33;34943;-92
2022/03/11 09:25:31;;;;;;;3.40;2.50;;;;;;;1.89;30.48;101212.16;4253365;33;33784;-93
2022/03/11 09:28:05;;;;;;;3.37;2.65;;;;;;;1.17;30.83;101211.25;4252833;33;33813;-92
2022/03/11 09:30:35;;;;;;;6.80;2.65;;;;;;;1.77;29.61;101215.00;4259057;33;33171;-91
2022/03/11 09:33:04;;;;;;;2.78;2.35;;;;;;;0.67;31.41;101212.16;4252901;33;34441;-93
2022/03/11 09:35:36;;;;;;;2.58;2.35;;;;;;;0.73;31.29;101215.91;4252702;33;33260;-93
2022/03/11 09:38:06;;;;;;;2.50;2.30;;;;;;;0.88;31.18;101217.50;4254442;33;33325;-94
2022/03/11 09:40:35;;;;;;;3.13;2.60;;;;;;;1.63;30.33;101214.34;4254353;33;33096;-91
2022/03/11 09:43:04;;;;;;;2.95;2.60;;;;;;;1.23;30.34;101207.34;4245703;33;32224;-92
2022/03/11 09:45:33;;;;;;;3.95;2.55;;;;;;;1.45;30.12;101208.34;4256354;33;34290;-93
2022/03/11 09:48:03;;;;;;;2.37;2.17;;;;;;;1.10;30.68;101204.97;4251775;33;33803;-91
2022/03/11 09:50:32;;;;;;;2.72;2.22;;;;;;;1.95;29.56;101201.31;4248672;33;32745;-93
2022/03/11 09:53:03;;;;;;;2.72;2.30;;;;;;;2.22;29.14;101191.44;4258145;33;34328;-93
2022/03/11 09:55:33;;;;;;;3.45;2.53;;;;;;;1.44;29.95;101202.38;4245456;33;32540;-92
2022/03/11 09:58:01;;;;;;;3.60;2.40;;;;;;;1.89;29.64;101196.78;4265427;33;34050;-91
2022/03/11 10:00:30;;;;;;;3.22;2.53;;;;;;;2.82;28.17;101197.47;4246690;33;31439;-92
2022/03/11 10:03:00;;;;;;;5.57;2.70;;;;;;;3.01;27.96;101191.44;4255761;33;33170;-95
2022/03/11 10:05:44;;;;;;;2.33;2.12;;;;;;;2.52;29.22;101190.22;4250610;33;32468;-92
2022/03/11 10:08:14;;;;;;;3.80;2.72;;;;;;;1.74;29.57;101196.97;4257576;33;34304;-92
2022/03/11 10:10:45;;;;;;;4.78;2.45;;;;;;;1.61;29.62;101195.50;4257751;33;33340;-92
2022/03/11 10:13:14;;;;;;;3.22;2.47;;;;;;;2.45;28.52;101190.78;4261186;33;221195;-92
2022/03/11 10:15:44;;;;;;;2.85;2.12;;;;;;;2.60;28.54;101188.00;4247497;33;34289;-93
2022/03/11 10:18:17;;;;;;;6.32;3.42;;;;;;;2.42;28.80;101190.66;4240341;33;33029;-94
2022/03/11 10:20:45;;;;;;;3.90;2.50;;;;;;;2.01;29.10;101188.81;4241192;33;33423;-94
2022/03/11 10:23:16;;;;;;;2.20;2.00;;;;;;;1.90;29.06;101189.16;4242435;33;33606;-95
2022/03/11 10:25:52;;;;;;;3.30;2.67;;;;;;;2.01;28.46;101189.66;4249223;33;33887;-93
2022/03/11 10:28:22;;;;;;;3.33;2.90;;;;;;;2.69;27.83;101177.28;4252816;33;32680;-94
2022/03/11 10:31:11;;;;;;;5.87;2.72;;;;;;;2.90;27.54;101183.31;4255398;33;33302;-93
2022/03/11 10:33:40;;;;;;;2.30;2.00;;;;;;;2.06;28.26;101190.75;4254003;33;33896;-94
2022/03/11 10:36:13;;;;;;;2.92;2.40;;;;;;;2.54;27.63;101175.81;4252385;33;33291;-95
2022/03/11 10:38:46;;;;;;;3.83;2.13;;;;;;;2.59;27.40;101173.44;4251201;33;33236;-93
2022/03/11 10:41:19;;;;;;;2.45;2.10;;;;;;;2.39;27.56;101164.88;4258799;33;33036;-94
2022/03/11 10:43:48;;;;;;;2.37;2.15;;;;;;;2.67;26.37;101171.19;4257254;33;34559;-93
2022/03/11 10:46:17;;;;;;;3.72;2.50;;;;;;;2.96;26.54;101168.16;4254684;33;34424;-95
2022/03/11 10:48:48;;;;;;;2.87;2.53;;;;;;;2.86;26.62;101173.72;4253456;33;35825;-94
2022/03/11 10:51:25;;;;;;;;;;;;;;;3.10;25.89;101173.00;4256159;33;32652;-94
2022/03/11 10:53:56;;;;;;;3.72;2.30;;;;;;;2.95;25.87;101156.19;4256214;33;32858;-94
2022/03/11 10:56:34;;;;;;;6.45;3.10;;;;;;;3.02;26.14;101154.75;4249649;33;33758;-96
2022/03/11 10:59:27;;;;;;;2.53;1.95;;;;;;;2.37;27.33;101156.28;4244305;33;32839;-93
2022/03/11 11:02:01;;;;;;;4.82;2.45;;;;;;;3.30;25.91;101143.00;4256642;33;33405;-94
2022/03/11 11:04:51;;;;;;;4.65;2.37;;;;;;;2.82;26.33;101143.66;4255620;33;33581;-95
2022/03/11 11:08:09;;;;;;;3.10;2.45;;;;;;;3.03;26.39;101138.53;4256750;33;33632;-93
2022/03/11 11:10:39;;;;;;;2.58;2.30;;;;;;;2.64;26.83;101135.22;4251804;33;32810;-93
2022/03/11 11:13:31;;;;;;;2.10;1.85;;;;;;;3.41;25.60;101126.38;4254185;33;32432;-93
2022/03/11 11:16:01;;;;;;;2.03;1.90;;;;;;;3.60;25.18;101123.69;4255660;33;34494;-93
2022/03/11 11:18:52;;;;;;;3.10;2.53;;;;;;;3.56;25.42;101128.66;4257111;33;33452;-94
2022/03/11 11:21:24;;;;;;;2.30;2.10;;;;;;;3.03;25.79;101128.28;4256868;33;33614;-93
2022/03/11 11:23:55;;;;;;;2.53;1.83;;;;;;;3.53;24.37;101120.84;4261193;33;32646;-95
2022/03/11 11:26:27;;;;;;;2.37;2.17;;;;;;;3.97;23.74;101119.91;4255834;33;33095;-95
2022/03/11 11:29:04;;;;;;;3.10;2.28;;;;;;;4.34;22.84;101110.09;4248763;33;33033;-93
2022/03/11 11:31:35;;;;;;;2.28;1.73;;;;;;;4.47;22.67;101105.44;4255498;33;34319;-94
2022/03/11 11:34:45;;;;;;;2.85;2.37;;;;;;;4.48;22.41;101098.59;4253500;33;32074;-94
2022/03/11 11:37:36;;;;;;;3.08;2.17;;;;;;;3.14;24.74;101108.19;4254994;33;32552;-94
2022/03/11 11:40:28;;;;;;;2.58;2.08;;;;;;;3.33;24.76;101105.53;4248991;33;32561;-94
2022/03/11 11:43:26;;;;;;;2.95;2.20;;;;;;;4.00;23.96;101101.19;4254318;33;32261;-94
2022/03/11 11:46:04;;;;;;;2.70;2.40;;;;;;;3.30;23.86;101095.16;4254643;33;33071;-94
2022/03/11 11:49:12;;;;;;;1.85;1.75;;;;;;;3.44;23.50;101093.12;4259843;33;33515;-93
2022/03/11 11:52:00;;;;;;;2.92;2.33;;;;;;;4.12;22.46;101087.91;4259251;33;34235;-93
2022/03/11 11:55:32;;;;;;;4.03;2.30;;;;;;;4.62;22.42;101081.06;4257574;33;34011;-94
2022/03/11 11:58:23;;;;;;;2.50;2.30;;;;;;;4.82;21.78;101081.72;4259048;33;33298;-95
2022/03/11 12:00:57;;;;;;;3.12;2.05;;;;;;;4.45;21.54;101070.22;4257639;33;33653;-94
2022/03/11 12:03:51;;;;;;;2.62;1.83;;;;;;;4.78;21.59;101067.87;4253893;33;34469;-93
2022/03/11 12:06:55;;;;;;;1.90;1.73;;;;;;;4.72;21.18;101070.25;4254808;33;33838;-94
2022/03/11 12:10:12;;;;;;;3.37;2.25;;;;;;;4.19;22.51;101067.63;4254646;33;33683;-93
2022/03/11 12:13:02;;;;;;;2.50;1.92;;;;;;;4.35;22.02;101068.13;4243424;33;33657;-93
2022/03/11 12:15:49;;;;;;;5.43;2.20;;;;;;;4.93;20.84;101067.50;4234112;33;34259;-94
2022/03/11 12:18:45;;;;;;;4.05;2.53;;;;;;;5.18;21.09;101058.00;4239986;33;34429;-93
2022/03/11 12:21:41;;;;;;;2.35;2.15;;;;;;;5.54;20.84;101061.66;4242128;33;32411;-93
2022/03/11 12:24:32;;;;;;;4.07;2.50;;;;;;;4.82;21.88;101056.88;4226544;33;33328;-94
2022/03/11 12:27:51;;;;;;;3.62;2.28;;;;;;;3.97;22.96;101057.44;4230650;33;32355;-93